sensor_id;sensor_type;location;lat;lon;timestamp;P1;durP1;ratioP1;P2;durP2;ratioP2
2784;SDS011;57944;48.722;9.316;2023-12-29T00:02:07;5.53;;;2.70;;
2784;SDS011;57944;48.722;9.316;2023-12-29T00:04:40;6.73;;;2.83;;
2784;SDS011;57944;48.722;9.316;2023-12-29T00:07:10;3.83;;;2.60;;
2784;SDS011;57944;48.722;9.316;2023-12-29T00:09:44;4.60;;;3.00;;
2784;SDS011;57944;48.722;9.316;2023-12-29T00:12:14;4.00;;;2.53;;
2784;SDS011;57944;48.722;9.316;2023-12-29T00:14:46;5.80;;;3.47;;
2784;SDS011;57944;48.722;9.316;2023-12-29T00:17:17;4.57;;;2.60;;
2784;SDS011;57944;48.722;9.316;2023-12-29T00:19:50;6.40;;;2.43;;
2784;SDS011;57944;48.722;9.316;2023-12-29T00:22:20;3.90;;;2.13;;
2784;SDS011;57944;48.722;9.316;2023-12-29T00:24:54;4.23;;;2.70;;
2784;SDS011;57944;48.722;9.316;2023-12-29T00:27:24;8.10;;;2.50;;
2784;SDS011;57944;48.722;9.316;2023-12-29T00:29:55;3.53;;;2.50;;
2784;SDS011;57944;48.722;9.316;2023-12-29T00:32:26;5.17;;;2.67;;
2784;SDS011;57944;48.722;9.316;2023-12-29T00:34:59;4.10;;;2.80;;
2784;SDS011;57944;48.722;9.316;2023-12-29T00:37:29;3.90;;;2.53;;
2784;SDS011;57944;48.722;9.316;2023-12-29T00:40:00;4.87;;;3.07;;
2784;SDS011;57944;48.722;9.316;2023-12-29T00:42:32;4.07;;;2.67;;
2784;SDS011;57944;48.722;9.316;2023-12-29T00:45:03;3.77;;;2.47;;
2784;SDS011;57944;48.722;9.316;2023-12-29T00:47:34;5.03;;;2.80;;
2784;SDS011;57944;48.722;9.316;2023-12-29T00:50:08;3.70;;;2.63;;
2784;SDS011;57944;48.722;9.316;2023-12-29T00:52:38;7.10;;;3.00;;
2784;SDS011;57944;48.722;9.316;2023-12-29T00:55:09;4.60;;;2.83;;
2784;SDS011;57944;48.722;9.316;2023-12-29T00:57:41;4.90;;;2.97;;
2784;SDS011;57944;48.722;9.316;2023-12-29T01:00:12;5.60;;;3.07;;
2784;SDS011;57944;48.722;9.316;2023-12-29T01:02:43;3.97;;;2.47;;
2784;SDS011;57944;48.722;9.316;2023-12-29T01:05:17;8.73;;;3.33;;
2784;SDS011;57944;48.722;9.316;2023-12-29T01:07:47;4.70;;;2.93;;
2784;SDS011;57944;48.722;9.316;2023-12-29T01:10:18;5.93;;;3.20;;
2784;SDS011;57944;48.722;9.316;2023-12-29T01:12:49;4.73;;;3.03;;
2784;SDS011;57944;48.722;9.316;2023-12-29T01:15:19;7.17;;;3.60;;
2784;SDS011;57944;48.722;9.316;2023-12-29T01:17:50;4.80;;;3.10;;
2784;SDS011;57944;48.722;9.316;2023-12-29T01:20:23;4.53;;;3.10;;
2784;SDS011;57944;48.722;9.316;2023-12-29T01:22:54;9.03;;;3.43;;
2784;SDS011;57944;48.722;9.316;2023-12-29T01:25:25;4.80;;;2.93;;
2784;SDS011;57944;48.722;9.316;2023-12-29T01:27:56;5.40;;;3.40;;
2784;SDS011;57944;48.722;9.316;2023-12-29T01:30:26;4.03;;;2.93;;
2784;SDS011;57944;48.722;9.316;2023-12-29T01:32:57;5.17;;;3.63;;
2784;SDS011;57944;48.722;9.316;2023-12-29T01:35:31;4.50;;;2.93;;
2784;SDS011;57944;48.722;9.316;2023-12-29T01:38:02;4.60;;;3.10;;
2784;SDS011;57944;48.722;9.316;2023-12-29T01:40:40;5.10;;;3.07;;
2784;SDS011;57944;48.722;9.316;2023-12-29T01:43:13;4.10;;;3.20;;
2784;SDS011;57944;48.722;9.316;2023-12-29T01:45:43;4.60;;;3.43;;
2784;SDS011;57944;48.722;9.316;2023-12-29T01:48:23;6.97;;;4.30;;
2784;SDS011;57944;48.722;9.316;2023-12-29T01:50:57;6.60;;;3.87;;
2784;SDS011;57944;48.722;9.316;2023-12-29T01:53:29;6.30;;;4.27;;
2784;SDS011;57944;48.722;9.316;2023-12-29T01:56:13;6.47;;;4.00;;
2784;SDS011;57944;48.722;9.316;2023-12-29T01:58:44;5.70;;;3.53;;
2784;SDS011;57944;48.722;9.316;2023-12-29T02:01:17;7.13;;;3.50;;
2784;SDS011;57944;48.722;9.316;2023-12-29T02:03:49;8.63;;;4.47;;
2784;SDS011;57944;48.722;9.316;2023-12-29T02:06:22;5.83;;;3.60;;
2784;SDS011;57944;48.722;9.316;2023-12-29T02:08:57;6.47;;;4.10;;
2784;SDS011;57944;48.722;9.316;2023-12-29T02:11:28;7.90;;;3.20;;
2784;SDS011;57944;48.722;9.316;2023-12-29T02:14:01;9.97;;;3.60;;
2784;SDS011;57944;48.722;9.316;2023-12-29T02:16:33;6.07;;;3.90;;
2784;SDS011;57944;48.722;9.316;2023-12-29T02:19:12;7.00;;;3.83;;
2784;SDS011;57944;48.722;9.316;2023-12-29T02:22:08;4.90;;;3.70;;
2784;SDS011;57944;48.722;9.316;2023-12-29T02:24:39;4.90;;;3.63;;
2784;SDS011;57944;48.722;9.316;2023-12-29T02:27:18;6.80;;;4.47;;
2784;SDS011;57944;48.722;9.316;2023-12-29T02:29:58;5.60;;;3.80;;
2784;SDS011;57944;48.722;9.316;2023-12-29T02:32:46;8.30;;;4.00;;
2784;SDS011;57944;48.722;9.316;2023-12-29T02:35:21;6.07;;;3.90;;
2784;SDS011;57944;48.722;9.316;2023-12-29T02:37:55;4.30;;;3.27;;
2784;SDS011;57944;48.722;9.316;2023-12-29T02:40:30;12.23;;;4.13;;
2784;SDS011;57944;48.722;9.316;2023-12-29T02:43:01;5.97;;;3.93;;
2784;SDS011;57944;48.722;9.316;2023-12-29T02:45:31;6.80;;;4.13;;
2784;SDS011;57944;48.722;9.316;2023-12-29T02:48:02;5.93;;;3.80;;
2784;SDS011;57944;48.722;9.316;2023-12-29T02:50:35;5.13;;;3.67;;
2784;SDS011;57944;48.722;9.316;2023-12-29T02:53:06;5.77;;;3.83;;
2784;SDS011;57944;48.722;9.316;2023-12-29T02:55:39;10.60;;;4.33;;
2784;SDS011;57944;48.722;9.316;2023-12-29T02:58:10;6.00;;;3.40;;
2784;SDS011;57944;48.722;9.316;2023-12-29T03:00:43;5.93;;;3.50;;
2784;SDS011;57944;48.722;9.316;2023-12-29T03:03:14;5.37;;;3.70;;
2784;SDS011;57944;48.722;9.316;2023-12-29T03:05:45;5.00;;;3.37;;
2784;SDS011;57944;48.722;9.316;2023-12-29T03:08:15;6.03;;;3.70;;
2784;SDS011;57944;48.722;9.316;2023-12-29T03:10:49;6.80;;;4.03;;
2784;SDS011;57944;48.722;9.316;2023-12-29T03:13:19;10.57;;;4.33;;
2784;SDS011;57944;48.722;9.316;2023-12-29T03:15:50;4.87;;;3.57;;
2784;SDS011;57944;48.722;9.316;2023-12-29T03:18:21;6.20;;;4.23;;
2784;SDS011;57944;48.722;9.316;2023-12-29T03:20:51;7.17;;;4.57;;
2784;SDS011;57944;48.722;9.316;2023-12-29T03:23:22;4.83;;;3.87;;
2784;SDS011;57944;48.722;9.316;2023-12-29T03:25:55;8.07;;;3.43;;
2784;SDS011;57944;48.722;9.316;2023-12-29T03:28:26;5.23;;;4.07;;
2784;SDS011;57944;48.722;9.316;2023-12-29T03:30:57;5.63;;;5.00;;
2784;SDS011;57944;48.722;9.316;2023-12-29T03:33:28;7.20;;;4.00;;
2784;SDS011;57944;48.722;9.316;2023-12-29T03:35:59;7.47;;;4.10;;
2784;SDS011;57944;48.722;9.316;2023-12-29T03:38:30;5.63;;;3.50;;
2784;SDS011;57944;48.722;9.316;2023-12-29T03:41:03;5.33;;;3.60;;
2784;SDS011;57944;48.722;9.316;2023-12-29T03:43:34;6.10;;;4.40;;
2784;SDS011;57944;48.722;9.316;2023-12-29T03:46:14;7.03;;;4.10;;
2784;SDS011;57944;48.722;9.316;2023-12-29T03:48:48;4.83;;;3.40;;
2784;SDS011;57944;48.722;9.316;2023-12-29T03:51:20;6.90;;;4.07;;
2784;SDS011;57944;48.722;9.316;2023-12-29T03:53:51;6.17;;;3.83;;
2784;SDS011;57944;48.722;9.316;2023-12-29T03:56:24;5.17;;;3.83;;
2784;SDS011;57944;48.722;9.316;2023-12-29T03:58:55;5.30;;;3.90;;
2784;SDS011;57944;48.722;9.316;2023-12-29T04:01:26;3.90;;;2.90;;
2784;SDS011;57944;48.722;9.316;2023-12-29T04:03:57;6.03;;;3.80;;
2784;SDS011;57944;48.722;9.316;2023-12-29T04:06:27;4.93;;;2.93;;
2784;SDS011;57944;48.722;9.316;2023-12-29T04:08:58;6.47;;;4.10;;
2784;SDS011;57944;48.722;9.316;2023-12-29T04:11:31;4.60;;;2.97;;
2784;SDS011;57944;48.722;9.316;2023-12-29T04:14:02;5.90;;;3.50;;
2784;SDS011;57944;48.722;9.316;2023-12-29T04:16:36;7.10;;;3.70;;
2784;SDS011;57944;48.722;9.316;2023-12-29T04:19:07;6.30;;;3.97;;
2784;SDS011;57944;48.722;9.316;2023-12-29T04:21:41;5.17;;;3.77;;
2784;SDS011;57944;48.722;9.316;2023-12-29T04:24:12;5.47;;;3.80;;
2784;SDS011;57944;48.722;9.316;2023-12-29T04:26:45;5.70;;;3.73;;
2784;SDS011;57944;48.722;9.316;2023-12-29T04:29:15;5.80;;;4.10;;
2784;SDS011;57944;48.722;9.316;2023-12-29T04:31:46;5.90;;;4.17;;
2784;SDS011;57944;48.722;9.316;2023-12-29T04:34:17;10.30;;;5.83;;
2784;SDS011;57944;48.722;9.316;2023-12-29T04:36:47;15.47;;;6.73;;
2784;SDS011;57944;48.722;9.316;2023-12-29T04:39:18;9.83;;;5.83;;
2784;SDS011;57944;48.722;9.316;2023-12-29T04:41:51;9.83;;;5.83;;
2784;SDS011;57944;48.722;9.316;2023-12-29T04:44:22;11.13;;;5.80;;
2784;SDS011;57944;48.722;9.316;2023-12-29T04:46:53;10.10;;;6.40;;
2784;SDS011;57944;48.722;9.316;2023-12-29T04:49:23;11.43;;;6.13;;
2784;SDS011;57944;48.722;9.316;2023-12-29T04:51:54;10.43;;;6.30;;
2784;SDS011;57944;48.722;9.316;2023-12-29T04:54:25;12.33;;;6.70;;
2784;SDS011;57944;48.722;9.316;2023-12-29T04:56:58;6.87;;;4.63;;
2784;SDS011;57944;48.722;9.316;2023-12-29T04:59:28;8.60;;;4.63;;
2784;SDS011;57944;48.722;9.316;2023-12-29T05:01:59;7.80;;;4.83;;
2784;SDS011;57944;48.722;9.316;2023-12-29T05:04:29;9.40;;;5.00;;
2784;SDS011;57944;48.722;9.316;2023-12-29T05:07:00;7.50;;;4.60;;
2784;SDS011;57944;48.722;9.316;2023-12-29T05:09:31;11.50;;;5.20;;
2784;SDS011;57944;48.722;9.316;2023-12-29T05:12:05;8.17;;;4.83;;
2784;SDS011;57944;48.722;9.316;2023-12-29T05:14:36;8.93;;;4.80;;
2784;SDS011;57944;48.722;9.316;2023-12-29T05:17:06;5.30;;;4.10;;
2784;SDS011;57944;48.722;9.316;2023-12-29T05:19:37;6.50;;;4.30;;
2784;SDS011;57944;48.722;9.316;2023-12-29T05:22:08;6.00;;;3.90;;
2784;SDS011;57944;48.722;9.316;2023-12-29T05:24:42;8.10;;;5.33;;
2784;SDS011;57944;48.722;9.316;2023-12-29T05:27:15;8.53;;;4.53;;
2784;SDS011;57944;48.722;9.316;2023-12-29T05:29:45;6.30;;;4.67;;
2784;SDS011;57944;48.722;9.316;2023-12-29T05:32:16;8.47;;;6.07;;
2784;SDS011;57944;48.722;9.316;2023-12-29T05:34:47;9.30;;;4.80;;
2784;SDS011;57944;48.722;9.316;2023-12-29T05:37:17;6.50;;;4.13;;
2784;SDS011;57944;48.722;9.316;2023-12-29T05:39:48;7.87;;;4.37;;
2784;SDS011;57944;48.722;9.316;2023-12-29T05:42:21;7.47;;;4.23;;
2784;SDS011;57944;48.722;9.316;2023-12-29T05:44:52;6.00;;;4.40;;
2784;SDS011;57944;48.722;9.316;2023-12-29T05:47:23;6.87;;;4.00;;
2784;SDS011;57944;48.722;9.316;2023-12-29T05:49:53;5.63;;;3.80;;
2784;SDS011;57944;48.722;9.316;2023-12-29T05:52:24;6.17;;;4.10;;
2784;SDS011;57944;48.722;9.316;2023-12-29T05:54:55;9.17;;;3.87;;
2784;SDS011;57944;48.722;9.316;2023-12-29T05:57:28;5.20;;;3.83;;
2784;SDS011;57944;48.722;9.316;2023-12-29T05:59:59;6.90;;;4.83;;
2784;SDS011;57944;48.722;9.316;2023-12-29T06:02:37;6.30;;;4.53;;
2784;SDS011;57944;48.722;9.316;2023-12-29T06:05:08;5.63;;;4.40;;
2784;SDS011;57944;48.722;9.316;2023-12-29T06:07:40;6.70;;;4.50;;
2784;SDS011;57944;48.722;9.316;2023-12-29T06:10:11;9.57;;;5.67;;
2784;SDS011;57944;48.722;9.316;2023-12-29T06:12:44;6.57;;;5.23;;
2784;SDS011;57944;48.722;9.316;2023-12-29T06:15:15;5.73;;;4.23;;
2784;SDS011;57944;48.722;9.316;2023-12-29T06:17:47;8.00;;;5.00;;
2784;SDS011;57944;48.722;9.316;2023-12-29T06:20:17;6.10;;;4.13;;
2784;SDS011;57944;48.722;9.316;2023-12-29T06:22:48;6.60;;;4.30;;
2784;SDS011;57944;48.722;9.316;2023-12-29T06:25:19;5.43;;;3.87;;
2784;SDS011;57944;48.722;9.316;2023-12-29T06:27:53;5.20;;;4.13;;
2784;SDS011;57944;48.722;9.316;2023-12-29T06:30:24;5.83;;;4.27;;
2784;SDS011;57944;48.722;9.316;2023-12-29T06:32:55;4.23;;;3.20;;
2784;SDS011;57944;48.722;9.316;2023-12-29T06:35:26;6.13;;;3.80;;
2784;SDS011;57944;48.722;9.316;2023-12-29T06:37:56;5.00;;;3.60;;
2784;SDS011;57944;48.722;9.316;2023-12-29T06:40:27;5.20;;;4.23;;
2784;SDS011;57944;48.722;9.316;2023-12-29T06:43:00;6.60;;;4.43;;
2784;SDS011;57944;48.722;9.316;2023-12-29T06:45:32;4.73;;;3.53;;
2784;SDS011;57944;48.722;9.316;2023-12-29T06:48:03;7.80;;;4.30;;
2784;SDS011;57944;48.722;9.316;2023-12-29T06:50:34;5.07;;;3.40;;
2784;SDS011;57944;48.722;9.316;2023-12-29T06:53:05;7.90;;;4.87;;
2784;SDS011;57944;48.722;9.316;2023-12-29T06:55:36;7.90;;;4.17;;
2784;SDS011;57944;48.722;9.316;2023-12-29T06:58:09;8.40;;;4.33;;
2784;SDS011;57944;48.722;9.316;2023-12-29T07:00:40;6.97;;;4.80;;
2784;SDS011;57944;48.722;9.316;2023-12-29T07:03:12;7.27;;;4.20;;
2784;SDS011;57944;48.722;9.316;2023-12-29T07:05:43;8.40;;;6.90;;
2784;SDS011;57944;48.722;9.316;2023-12-29T07:08:14;4.83;;;3.70;;
2784;SDS011;57944;48.722;9.316;2023-12-29T07:10:45;8.50;;;4.43;;
2784;SDS011;57944;48.722;9.316;2023-12-29T07:13:19;6.13;;;4.17;;
2784;SDS011;57944;48.722;9.316;2023-12-29T07:15:50;6.00;;;3.93;;
2784;SDS011;57944;48.722;9.316;2023-12-29T07:18:21;6.60;;;4.23;;
2784;SDS011;57944;48.722;9.316;2023-12-29T07:20:52;6.83;;;4.70;;
2784;SDS011;57944;48.722;9.316;2023-12-29T07:23:22;8.67;;;5.60;;
2784;SDS011;57944;48.722;9.316;2023-12-29T07:25:53;6.60;;;4.27;;
2784;SDS011;57944;48.722;9.316;2023-12-29T07:28:26;6.20;;;4.37;;
2784;SDS011;57944;48.722;9.316;2023-12-29T07:30:57;7.57;;;4.77;;
2784;SDS011;57944;48.722;9.316;2023-12-29T07:33:29;8.47;;;4.73;;
2784;SDS011;57944;48.722;9.316;2023-12-29T07:36:00;8.60;;;5.00;;
2784;SDS011;57944;48.722;9.316;2023-12-29T07:38:31;8.63;;;5.37;;
2784;SDS011;57944;48.722;9.316;2023-12-29T07:41:01;9.13;;;5.10;;
2784;SDS011;57944;48.722;9.316;2023-12-29T07:43:36;8.90;;;5.40;;
2784;SDS011;57944;48.722;9.316;2023-12-29T07:46:06;6.97;;;4.70;;
2784;SDS011;57944;48.722;9.316;2023-12-29T07:48:37;5.17;;;3.90;;
2784;SDS011;57944;48.722;9.316;2023-12-29T07:51:08;8.60;;;5.70;;
2784;SDS011;57944;48.722;9.316;2023-12-29T07:53:40;8.33;;;5.07;;
2784;SDS011;57944;48.722;9.316;2023-12-29T07:56:11;4.10;;;3.13;;
2784;SDS011;57944;48.722;9.316;2023-12-29T07:58:44;5.37;;;3.93;;
2784;SDS011;57944;48.722;9.316;2023-12-29T08:01:15;5.00;;;3.20;;
2784;SDS011;57944;48.722;9.316;2023-12-29T08:03:46;5.40;;;3.70;;
2784;SDS011;57944;48.722;9.316;2023-12-29T08:06:17;8.40;;;4.90;;
2784;SDS011;57944;48.722;9.316;2023-12-29T08:08:47;6.20;;;4.13;;
2784;SDS011;57944;48.722;9.316;2023-12-29T08:11:18;9.80;;;5.07;;
2784;SDS011;57944;48.722;9.316;2023-12-29T08:13:51;4.13;;;3.67;;
2784;SDS011;57944;48.722;9.316;2023-12-29T08:16:21;7.10;;;4.70;;
2784;SDS011;57944;48.722;9.316;2023-12-29T08:18:53;7.67;;;4.13;;
2784;SDS011;57944;48.722;9.316;2023-12-29T08:21:23;5.57;;;3.63;;
2784;SDS011;57944;48.722;9.316;2023-12-29T08:23:55;4.93;;;4.00;;
2784;SDS011;57944;48.722;9.316;2023-12-29T08:26:26;5.50;;;4.27;;
2784;SDS011;57944;48.722;9.316;2023-12-29T08:28:59;5.47;;;3.80;;
2784;SDS011;57944;48.722;9.316;2023-12-29T08:31:29;5.37;;;3.70;;
2784;SDS011;57944;48.722;9.316;2023-12-29T08:34:00;4.93;;;3.47;;
2784;SDS011;57944;48.722;9.316;2023-12-29T08:36:31;6.13;;;3.77;;
2784;SDS011;57944;48.722;9.316;2023-12-29T08:39:02;6.07;;;4.07;;
2784;SDS011;57944;48.722;9.316;2023-12-29T08:41:33;5.23;;;3.87;;
2784;SDS011;57944;48.722;9.316;2023-12-29T08:44:07;6.03;;;4.00;;
2784;SDS011;57944;48.722;9.316;2023-12-29T08:46:37;4.10;;;3.00;;
2784;SDS011;57944;48.722;9.316;2023-12-29T08:49:08;6.43;;;3.47;;
2784;SDS011;57944;48.722;9.316;2023-12-29T08:51:39;5.60;;;3.97;;
2784;SDS011;57944;48.722;9.316;2023-12-29T08:54:09;6.23;;;4.10;;
2784;SDS011;57944;48.722;9.316;2023-12-29T08:56:40;4.60;;;2.97;;
2784;SDS011;57944;48.722;9.316;2023-12-29T08:59:13;5.37;;;3.80;;
2784;SDS011;57944;48.722;9.316;2023-12-29T09:01:44;5.70;;;3.10;;
2784;SDS011;57944;48.722;9.316;2023-12-29T09:04:14;4.13;;;2.57;;
2784;SDS011;57944;48.722;9.316;2023-12-29T09:06:45;8.67;;;3.60;;
2784;SDS011;57944;48.722;9.316;2023-12-29T09:09:16;6.30;;;3.10;;
2784;SDS011;57944;48.722;9.316;2023-12-29T09:11:46;5.20;;;3.40;;
2784;SDS011;57944;48.722;9.316;2023-12-29T09:14:20;4.93;;;3.10;;
2784;SDS011;57944;48.722;9.316;2023-12-29T09:16:50;4.00;;;2.60;;
2784;SDS011;57944;48.722;9.316;2023-12-29T09:19:21;5.07;;;2.90;;
2784;SDS011;57944;48.722;9.316;2023-12-29T09:22:04;5.70;;;2.87;;
2784;SDS011;57944;48.722;9.316;2023-12-29T09:24:35;5.63;;;2.63;;
2784;SDS011;57944;48.722;9.316;2023-12-29T09:27:06;4.67;;;2.87;;
2784;SDS011;57944;48.722;9.316;2023-12-29T09:29:39;6.80;;;3.90;;
2784;SDS011;57944;48.722;9.316;2023-12-29T09:32:10;4.50;;;3.17;;
2784;SDS011;57944;48.722;9.316;2023-12-29T09:34:41;3.60;;;2.90;;
2784;SDS011;57944;48.722;9.316;2023-12-29T09:37:11;4.97;;;3.17;;
2784;SDS011;57944;48.722;9.316;2023-12-29T09:39:42;4.27;;;2.40;;
2784;SDS011;57944;48.722;9.316;2023-12-29T09:42:13;3.77;;;2.60;;
2784;SDS011;57944;48.722;9.316;2023-12-29T09:44:52;7.93;;;2.90;;
2784;SDS011;57944;48.722;9.316;2023-12-29T09:47:23;4.73;;;3.10;;
2784;SDS011;57944;48.722;9.316;2023-12-29T09:49:54;4.60;;;2.47;;
2784;SDS011;57944;48.722;9.316;2023-12-29T09:52:25;3.70;;;2.30;;
2784;SDS011;57944;48.722;9.316;2023-12-29T09:54:56;3.20;;;2.03;;
2784;SDS011;57944;48.722;9.316;2023-12-29T09:57:27;6.93;;;3.10;;
2784;SDS011;57944;48.722;9.316;2023-12-29T10:00:01;5.90;;;2.47;;
2784;SDS011;57944;48.722;9.316;2023-12-29T10:02:36;8.63;;;3.00;;
2784;SDS011;57944;48.722;9.316;2023-12-29T10:05:07;3.63;;;2.23;;
2784;SDS011;57944;48.722;9.316;2023-12-29T10:07:39;3.47;;;2.23;;
2784;SDS011;57944;48.722;9.316;2023-12-29T10:10:13;3.80;;;2.37;;
2784;SDS011;57944;48.722;9.316;2023-12-29T10:12:47;3.53;;;2.23;;
2784;SDS011;57944;48.722;9.316;2023-12-29T10:15:24;5.37;;;3.27;;
2784;SDS011;57944;48.722;9.316;2023-12-29T10:18:06;4.73;;;3.10;;
2784;SDS011;57944;48.722;9.316;2023-12-29T10:20:45;4.07;;;2.43;;
2784;SDS011;57944;48.722;9.316;2023-12-29T10:23:20;5.07;;;2.90;;
2784;SDS011;57944;48.722;9.316;2023-12-29T10:25:58;4.00;;;2.17;;
2784;SDS011;57944;48.722;9.316;2023-12-29T10:28:28;3.73;;;2.40;;
2784;SDS011;57944;48.722;9.316;2023-12-29T10:31:01;4.00;;;2.37;;
2784;SDS011;57944;48.722;9.316;2023-12-29T10:33:33;4.20;;;2.03;;
2784;SDS011;57944;48.722;9.316;2023-12-29T10:36:05;4.50;;;2.47;;
2784;SDS011;57944;48.722;9.316;2023-12-29T10:38:38;3.00;;;2.10;;
2784;SDS011;57944;48.722;9.316;2023-12-29T10:41:11;4.73;;;2.83;;
2784;SDS011;57944;48.722;9.316;2023-12-29T10:43:43;3.50;;;2.27;;
2784;SDS011;57944;48.722;9.316;2023-12-29T10:46:21;5.10;;;2.20;;
2784;SDS011;57944;48.722;9.316;2023-12-29T10:48:54;3.67;;;2.10;;
2784;SDS011;57944;48.722;9.316;2023-12-29T10:51:37;5.40;;;2.20;;
2784;SDS011;57944;48.722;9.316;2023-12-29T10:54:08;3.60;;;2.03;;
2784;SDS011;57944;48.722;9.316;2023-12-29T10:57:00;2.93;;;2.00;;
2784;SDS011;57944;48.722;9.316;2023-12-29T10:59:31;3.57;;;2.30;;
2784;SDS011;57944;48.722;9.316;2023-12-29T11:02:05;4.90;;;2.23;;
2784;SDS011;57944;48.722;9.316;2023-12-29T11:04:41;3.63;;;2.07;;
2784;SDS011;57944;48.722;9.316;2023-12-29T11:07:12;3.77;;;2.30;;
2784;SDS011;57944;48.722;9.316;2023-12-29T11:09:43;3.80;;;2.17;;
2784;SDS011;57944;48.722;9.316;2023-12-29T11:12:15;6.37;;;2.13;;
2784;SDS011;57944;48.722;9.316;2023-12-29T11:14:45;3.30;;;2.00;;
2784;SDS011;57944;48.722;9.316;2023-12-29T11:17:19;4.07;;;2.27;;
2784;SDS011;57944;48.722;9.316;2023-12-29T11:19:50;3.50;;;1.80;;
2784;SDS011;57944;48.722;9.316;2023-12-29T11:22:22;3.67;;;2.57;;
2784;SDS011;57944;48.722;9.316;2023-12-29T11:24:53;4.97;;;1.97;;
2784;SDS011;57944;48.722;9.316;2023-12-29T11:27:27;3.73;;;1.83;;
2784;SDS011;57944;48.722;9.316;2023-12-29T11:29:59;4.60;;;2.60;;
2784;SDS011;57944;48.722;9.316;2023-12-29T11:32:37;3.20;;;2.17;;
2784;SDS011;57944;48.722;9.316;2023-12-29T11:35:13;3.00;;;2.00;;
2784;SDS011;57944;48.722;9.316;2023-12-29T11:38:04;3.50;;;1.93;;
2784;SDS011;57944;48.722;9.316;2023-12-29T11:40:49;6.20;;;2.20;;
2784;SDS011;57944;48.722;9.316;2023-12-29T11:43:24;3.83;;;2.03;;
2784;SDS011;57944;48.722;9.316;2023-12-29T11:45:55;4.13;;;1.90;;
2784;SDS011;57944;48.722;9.316;2023-12-29T11:51:31;3.00;;;1.97;;
2784;SDS011;57944;48.722;9.316;2023-12-29T11:54:04;3.93;;;1.83;;
2784;SDS011;57944;48.722;9.316;2023-12-29T11:56:36;3.33;;;1.87;;
2784;SDS011;57944;48.722;9.316;2023-12-29T11:59:14;4.50;;;2.00;;
2784;SDS011;57944;48.722;9.316;2023-12-29T12:01:43;2.93;;;1.73;;
2784;SDS011;57944;48.722;9.316;2023-12-29T12:07:13;3.10;;;1.77;;
2784;SDS011;57944;48.722;9.316;2023-12-29T12:09:45;3.30;;;2.17;;
2784;SDS011;57944;48.722;9.316;2023-12-29T12:18:01;3.00;;;1.63;;
2784;SDS011;57944;48.722;9.316;2023-12-29T12:20:38;3.17;;;1.90;;
2784;SDS011;57944;48.722;9.316;2023-12-29T12:23:11;3.03;;;1.47;;
2784;SDS011;57944;48.722;9.316;2023-12-29T12:25:47;3.63;;;2.10;;
2784;SDS011;57944;48.722;9.316;2023-12-29T12:28:21;5.00;;;2.10;;
2784;SDS011;57944;48.722;9.316;2023-12-29T12:30:52;2.87;;;1.87;;
2784;SDS011;57944;48.722;9.316;2023-12-29T12:33:33;3.23;;;1.70;;
2784;SDS011;57944;48.722;9.316;2023-12-29T12:36:07;3.13;;;1.73;;
2784;SDS011;57944;48.722;9.316;2023-12-29T12:38:38;2.83;;;1.70;;
2784;SDS011;57944;48.722;9.316;2023-12-29T12:41:19;3.60;;;1.87;;
2784;SDS011;57944;48.722;9.316;2023-12-29T12:43:52;4.53;;;1.70;;
2784;SDS011;57944;48.722;9.316;2023-12-29T12:46:32;2.90;;;1.80;;
2784;SDS011;57944;48.722;9.316;2023-12-29T12:49:04;3.17;;;1.73;;
2784;SDS011;57944;48.722;9.316;2023-12-29T12:51:38;2.80;;;1.90;;
2784;SDS011;57944;48.722;9.316;2023-12-29T12:54:09;3.00;;;1.67;;
2784;SDS011;57944;48.722;9.316;2023-12-29T12:56:40;2.60;;;1.60;;
2784;SDS011;57944;48.722;9.316;2023-12-29T12:59:12;3.13;;;1.67;;
2784;SDS011;57944;48.722;9.316;2023-12-29T13:01:43;3.23;;;1.70;;
2784;SDS011;57944;48.722;9.316;2023-12-29T13:04:15;3.93;;;2.13;;
2784;SDS011;57944;48.722;9.316;2023-12-29T13:06:49;6.53;;;1.77;;
2784;SDS011;57944;48.722;9.316;2023-12-29T13:09:20;3.00;;;1.90;;
2784;SDS011;57944;48.722;9.316;2023-12-29T13:11:51;3.37;;;1.77;;
2784;SDS011;57944;48.722;9.316;2023-12-29T13:14:38;4.40;;;2.40;;
2784;SDS011;57944;48.722;9.316;2023-12-29T13:17:08;3.70;;;1.70;;
2784;SDS011;57944;48.722;9.316;2023-12-29T13:19:41;2.87;;;1.73;;
2784;SDS011;57944;48.722;9.316;2023-12-29T13:22:14;2.70;;;1.57;;
2784;SDS011;57944;48.722;9.316;2023-12-29T13:24:47;4.33;;;1.90;;
2784;SDS011;57944;48.722;9.316;2023-12-29T13:27:18;3.77;;;2.00;;
2784;SDS011;57944;48.722;9.316;2023-12-29T13:29:49;7.87;;;2.17;;
2784;SDS011;57944;48.722;9.316;2023-12-29T13:32:21;3.90;;;2.03;;
2784;SDS011;57944;48.722;9.316;2023-12-29T13:34:56;4.07;;;1.90;;
2784;SDS011;57944;48.722;9.316;2023-12-29T13:37:36;4.40;;;2.33;;
2784;SDS011;57944;48.722;9.316;2023-12-29T13:40:22;3.63;;;2.20;;
2784;SDS011;57944;48.722;9.316;2023-12-29T13:42:55;5.00;;;2.17;;
2784;SDS011;57944;48.722;9.316;2023-12-29T13:48:01;4.60;;;2.47;;
2784;SDS011;57944;48.722;9.316;2023-12-29T13:50:33;3.03;;;2.13;;
2784;SDS011;57944;48.722;9.316;2023-12-29T13:53:08;3.63;;;2.13;;
2784;SDS011;57944;48.722;9.316;2023-12-29T13:55:46;7.83;;;2.10;;
2784;SDS011;57944;48.722;9.316;2023-12-29T13:58:17;3.10;;;1.70;;
2784;SDS011;57944;48.722;9.316;2023-12-29T14:00:53;3.77;;;1.90;;
2784;SDS011;57944;48.722;9.316;2023-12-29T14:03:31;3.73;;;2.10;;
2784;SDS011;57944;48.722;9.316;2023-12-29T14:06:11;3.23;;;1.33;;
2784;SDS011;57944;48.722;9.316;2023-12-29T14:08:51;3.87;;;1.97;;
2784;SDS011;57944;48.722;9.316;2023-12-29T14:11:22;4.47;;;2.03;;
2784;SDS011;57944;48.722;9.316;2023-12-29T14:13:53;5.03;;;1.90;;
2784;SDS011;57944;48.722;9.316;2023-12-29T14:16:23;5.07;;;2.50;;
2784;SDS011;57944;48.722;9.316;2023-12-29T14:18:55;5.40;;;2.40;;
2784;SDS011;57944;48.722;9.316;2023-12-29T14:21:27;3.27;;;1.80;;
2784;SDS011;57944;48.722;9.316;2023-12-29T14:24:05;6.30;;;1.90;;
2784;SDS011;57944;48.722;9.316;2023-12-29T14:26:38;3.73;;;2.07;;
2784;SDS011;57944;48.722;9.316;2023-12-29T14:29:11;4.10;;;2.23;;
2784;SDS011;57944;48.722;9.316;2023-12-29T14:31:42;3.63;;;1.70;;
2784;SDS011;57944;48.722;9.316;2023-12-29T14:34:13;3.50;;;2.20;;
2784;SDS011;57944;48.722;9.316;2023-12-29T14:36:44;3.30;;;2.03;;
2784;SDS011;57944;48.722;9.316;2023-12-29T14:39:18;3.30;;;2.10;;
2784;SDS011;57944;48.722;9.316;2023-12-29T14:41:48;5.20;;;2.30;;
2784;SDS011;57944;48.722;9.316;2023-12-29T14:44:19;6.50;;;2.40;;
2784;SDS011;57944;48.722;9.316;2023-12-29T14:46:50;3.50;;;2.00;;
2784;SDS011;57944;48.722;9.316;2023-12-29T14:49:21;11.90;;;6.50;;
2784;SDS011;57944;48.722;9.316;2023-12-29T14:51:51;4.10;;;2.30;;
2784;SDS011;57944;48.722;9.316;2023-12-29T14:54:26;3.90;;;2.07;;
2784;SDS011;57944;48.722;9.316;2023-12-29T14:56:56;4.10;;;1.90;;
2784;SDS011;57944;48.722;9.316;2023-12-29T14:59:36;3.70;;;2.20;;
2784;SDS011;57944;48.722;9.316;2023-12-29T15:02:07;7.63;;;3.30;;
2784;SDS011;57944;48.722;9.316;2023-12-29T15:04:38;4.13;;;2.60;;
2784;SDS011;57944;48.722;9.316;2023-12-29T15:07:08;4.00;;;2.50;;
2784;SDS011;57944;48.722;9.316;2023-12-29T15:09:41;5.77;;;3.00;;
2784;SDS011;57944;48.722;9.316;2023-12-29T15:12:12;4.50;;;2.67;;
2784;SDS011;57944;48.722;9.316;2023-12-29T15:14:43;4.07;;;2.20;;
2784;SDS011;57944;48.722;9.316;2023-12-29T15:17:13;7.83;;;2.00;;
2784;SDS011;57944;48.722;9.316;2023-12-29T15:19:44;4.57;;;2.80;;
2784;SDS011;57944;48.722;9.316;2023-12-29T15:22:15;3.37;;;2.10;;
2784;SDS011;57944;48.722;9.316;2023-12-29T15:24:48;3.47;;;2.17;;
2784;SDS011;57944;48.722;9.316;2023-12-29T15:27:19;4.57;;;2.07;;
2784;SDS011;57944;48.722;9.316;2023-12-29T15:29:51;3.93;;;2.30;;
2784;SDS011;57944;48.722;9.316;2023-12-29T15:32:22;3.37;;;2.10;;
2784;SDS011;57944;48.722;9.316;2023-12-29T15:34:52;4.17;;;2.20;;
2784;SDS011;57944;48.722;9.316;2023-12-29T15:37:23;5.93;;;2.73;;
2784;SDS011;57944;48.722;9.316;2023-12-29T15:39:56;6.47;;;2.33;;
2784;SDS011;57944;48.722;9.316;2023-12-29T15:42:27;4.07;;;2.00;;
2784;SDS011;57944;48.722;9.316;2023-12-29T15:44:58;4.57;;;2.10;;
2784;SDS011;57944;48.722;9.316;2023-12-29T15:47:28;7.37;;;3.70;;